Time;durP1;ratioP1;P1;durP2;ratioP2;P2;SDS_P1;SDS_P2;PMS_P1;PMS_P2;Temp;Humidity;BMP_temperature;BMP_pressure;BME280_temperature;BME280_humidity;BME280_pressure;Samples;Min_cycle;Max_cycle;Signal;HPM_P1;HPM_P2
2022/06/05 00:00:21;;;;;;;7.55;6.85;;;;;;;20.34;64.90;96785.09;4952161;29;20083;-78
2022/06/05 00:03:03;;;;;;;7.63;6.93;;;;;;;20.29;65.19;96783.16;4948608;29;20047;-78
2022/06/05 00:05:37;;;;;;;8.07;7.38;;;;;;;20.25;65.23;96782.03;4937848;29;20067;-78
2022/06/05 00:08:12;;;;;;;8.70;7.88;;;;;;;20.18;65.43;96786.66;4936982;29;20079;-79
2022/06/05 00:10:46;;;;;;;8.20;7.50;;;;;;;20.14;65.62;96780.25;4936236;29;20130;-78
2022/06/05 00:13:20;;;;;;;7.63;6.93;;;;;;;20.13;65.78;96774.13;4936474;29;20055;-78
2022/06/05 00:15:49;;;;;;;8.07;7.38;;;;;;;20.15;65.87;96765.97;4935567;29;20099;-78
2022/06/05 00:18:17;;;;;;;8.20;7.15;;;;;;;20.17;65.67;96764.66;4936258;29;20090;-78
2022/06/05 00:20:45;;;;;;;8.70;7.90;;;;;;;20.20;65.43;96770.53;4935531;29;20500;-78
2022/06/05 00:23:14;;;;;;;8.15;7.45;;;;;;;20.21;65.30;96769.50;4936003;29;20075;-78
2022/06/05 00:25:51;;;;;;;7.35;6.68;;;;;;;20.21;65.46;96764.22;4936050;29;20051;-78
2022/06/05 00:28:27;;;;;;;7.90;7.20;;;;;;;20.17;65.51;96772.63;4935057;29;20051;-78
2022/06/05 00:31:05;;;;;;;7.55;6.82;;;;;;;20.16;65.76;96781.63;4935333;29;20055;-78
2022/06/05 00:33:36;;;;;;;6.65;6.05;;;;;;;20.19;65.61;96769.75;4935597;29;20069;-78
2022/06/05 00:36:18;;;;;;;7.22;6.32;;;;;;;20.22;65.62;96765.81;4935710;29;20059;-78
2022/06/05 00:38:54;;;;;;;7.95;6.20;;;;;;;20.22;65.34;96755.22;4937273;29;20048;-78
2022/06/05 00:41:45;;;;;;;8.07;7.30;;;;;;;20.23;65.47;96760.28;4940466;29;20073;-78
2022/06/05 00:44:18;;;;;;;8.73;7.82;;;;;;;20.21;65.34;96758.91;4940710;29;20134;-78
2022/06/05 00:46:48;;;;;;;7.00;6.40;;;;;;;20.21;65.28;96758.91;4940103;29;20058;-78
2022/06/05 00:49:16;;;;;;;7.20;6.60;;;;;;;20.21;65.52;96758.91;4939706;29;20052;-78
2022/06/05 00:51:44;;;;;;;9.02;7.45;;;;;;;20.22;65.28;96765.81;4939449;29;20051;-78
2022/06/05 00:54:11;;;;;;;7.38;6.78;;;;;;;20.20;65.44;96752.78;4939405;29;20075;-78
2022/06/05 00:56:39;;;;;;;8.23;7.53;;;;;;;20.15;65.71;96756.16;4939196;29;20131;-78
2022/06/05 00:59:12;;;;;;;8.88;8.15;;;;;;;20.10;66.13;96752.63;4938768;29;20047;-78
2022/06/05 01:01:42;;;;;;;8.90;7.68;;;;;;;20.04;66.40;96743.78;4938539;29;20163;-78
2022/06/05 01:04:11;;;;;;;8.88;7.97;;;;;;;20.00;66.34;96745.31;4938911;29;20127;-78
2022/06/05 01:06:39;;;;;;;8.35;7.57;;;;;;;19.96;66.47;96736.22;4939717;29;20083;-78
2022/06/05 01:09:07;;;;;;;9.38;8.57;;;;;;;19.92;66.54;96733.28;4939321;29;20139;-78
2022/06/05 01:11:44;;;;;;;9.05;8.32;;;;;;;19.89;66.95;96740.88;4938210;29;20115;-78
2022/06/05 01:14:20;;;;;;;9.05;8.25;;;;;;;19.84;66.99;96738.94;4938528;29;20052;-78
2022/06/05 01:16:56;;;;;;;8.98;8.18;;;;;;;19.80;67.33;96735.16;4939070;29;20424;-78
2022/06/05 01:19:40;;;;;;;8.95;8.15;;;;;;;19.75;67.46;96729.78;4938620;29;20490;-77
2022/06/05 01:22:38;;;;;;;8.50;7.43;;;;;;;19.74;67.40;96725.50;4938170;29;20134;-78
2022/06/05 01:25:22;;;;;;;8.68;7.65;;;;;;;19.74;67.40;96717.56;4938468;29;20047;-78
2022/06/05 01:27:56;;;;;;;8.02;7.35;;;;;;;19.72;67.23;96719.66;4938377;29;20047;-78
2022/06/05 03:40:00;;;;;;;7.57;6.97;;;;;;;19.34;66.08;96626.59;4601894;23;20047;-77
2022/06/05 03:42:28;;;;;;;7.85;7.07;;;;;;;19.33;66.23;96622.38;4941278;29;20044;-78
2022/06/05 03:44:55;;;;;;;7.28;6.57;;;;;;;19.37;66.47;96622.69;4955315;29;20107;-78
2022/06/05 03:47:23;;;;;;;7.78;7.07;;;;;;;19.39;66.14;96614.53;4954196;29;20093;-77
2022/06/05 03:49:50;;;;;;;8.00;7.20;;;;;;;19.40;66.06;96618.78;4942463;29;20048;-77
2022/06/05 04:24:29;;;;;;;6.57;5.97;;;;;;;19.46;65.92;96551.69;4940334;29;20126;-78
2022/06/05 04:26:57;;;;;;;6.03;5.53;;;;;;;19.49;65.81;96549.38;4953808;29;20082;-78
2022/06/05 04:29:25;;;;;;;6.65;6.00;;;;;;;19.50;65.76;96543.03;4953806;29;20052;-78
2022/06/05 04:31:53;;;;;;;6.20;5.70;;;;;;;19.52;65.47;96540.94;4952806;29;20090;-78
2022/06/05 04:34:22;;;;;;;8.95;6.03;;;;;;;19.52;65.26;96535.66;4954000;29;20047;-78
2022/06/05 04:50:21;;;;;;;6.22;5.70;;;;;;;19.59;65.11;96543.47;5492421;23;20087;-78
2022/06/05 04:52:49;;;;;;;6.20;5.60;;;;;;;19.58;64.95;96528.59;4936233;29;20052;-78
2022/06/05 04:55:16;;;;;;;5.43;4.97;;;;;;;19.57;65.07;96532.31;4936593;29;20130;-78
2022/06/05 04:57:44;;;;;;;5.82;5.22;;;;;;;19.58;64.96;96528.59;4938960;29;20139;-78
2022/06/05 05:00:13;;;;;;;5.53;5.10;;;;;;;19.60;65.32;96533.66;4951240;29;20063;-78
2022/06/05 05:02:40;;;;;;;5.80;5.40;;;;;;;19.60;64.89;96539.75;4951195;29;20062;-78
2022/06/05 05:05:09;;;;;;;6.80;5.53;;;;;;;19.61;65.05;96532.59;4955621;23;20048;-80
2022/06/05 05:07:38;;;;;;;6.32;5.72;;;;;;;19.63;64.84;96538.47;4934756;29;20055;-80
2022/06/05 05:10:06;;;;;;;5.13;4.72;;;;;;;19.65;64.95;96536.38;4934316;29;20047;-80
2022/06/05 05:12:33;;;;;;;5.78;5.28;;;;;;;19.64;64.70;96543.53;4934564;29;20171;-80
2022/06/05 05:15:01;;;;;;;7.50;5.47;;;;;;;19.63;64.67;96546.41;4934500;29;20557;-80
2022/06/05 05:17:29;;;;;;;5.90;5.40;;;;;;;19.60;64.66;96555.63;4934480;29;20076;-80
2022/06/05 05:19:58;;;;;;;6.32;5.60;;;;;;;19.59;64.54;96561.97;4934986;29;20141;-80
2022/06/05 05:22:26;;;;;;;5.88;5.38;;;;;;;19.56;64.16;96562.44;4935346;29;20066;-80
2022/06/05 05:24:55;;;;;;;7.25;5.50;;;;;;;19.54;64.08;96569.81;4934647;29;20071;-80
2022/06/05 05:27:22;;;;;;;5.10;4.70;;;;;;;19.51;64.42;96575.59;4936764;29;20086;-80
2022/06/05 05:29:50;;;;;;;6.15;5.55;;;;;;;19.53;64.63;96573.50;4937959;29;20103;-80
2022/06/05 05:32:17;;;;;;;5.95;5.45;;;;;;;19.53;64.71;96579.59;4937529;29;20074;-80
2022/06/05 05:34:45;;;;;;;6.50;5.90;;;;;;;19.54;64.69;96596.25;4937780;29;20051;-79
2022/06/05 05:37:13;;;;;;;5.88;5.35;;;;;;;19.54;64.78;96593.63;4938101;29;20130;-80
2022/06/05 05:42:30;;;;;;;7.00;6.35;;;;;;;19.52;64.82;96601.78;4938570;29;20134;-80
2022/06/05 05:44:58;;;;;;;6.90;6.28;;;;;;;19.49;64.92;96598.84;4937633;29;20498;-80
2022/06/05 05:47:28;;;;;;;6.70;6.10;;;;;;;19.45;65.18;96592.41;4937547;29;20509;-80
2022/06/05 05:49:58;;;;;;;6.65;6.05;;;;;;;19.40;65.27;96577.25;4937589;29;20135;-80
2022/06/05 05:52:27;;;;;;;6.63;6.03;;;;;;;19.38;65.47;96563.47;4937515;29;20051;-79
2022/06/05 05:54:56;;;;;;;6.57;6.07;;;;;;;19.36;65.55;96552.31;4937439;29;20106;-80
2022/06/05 05:57:24;;;;;;;7.00;6.30;;;;;;;19.35;65.64;96540.94;4937383;29;20051;-78
2022/06/05 05:59:53;;;;;;;6.00;5.50;;;;;;;19.37;66.00;96542.53;4937494;29;20505;-79
2022/06/05 06:02:22;;;;;;;6.22;5.72;;;;;;;19.39;65.91;96533.31;4937160;29;20052;-81
2022/06/05 06:04:52;;;;;;;7.60;6.40;;;;;;;19.42;65.81;96537.34;4938577;29;20055;-81
2022/06/05 06:07:20;;;;;;;7.28;6.30;;;;;;;19.41;65.75;96559.53;4929474;29;20111;-80
2022/06/05 06:09:48;;;;;;;7.60;6.78;;;;;;;19.37;65.83;96561.06;4937368;29;20060;-79
2022/06/05 06:12:22;;;;;;;6.78;6.28;;;;;;;19.32;65.90;96562.56;4937295;29;20052;-80
2022/06/05 06:14:50;;;;;;;8.27;6.60;;;;;;;19.28;66.10;96571.22;4937243;29;20055;-80
2022/06/05 06:17:19;;;;;;;6.72;6.22;;;;;;;19.23;66.07;96574.56;4937300;29;20087;-81
2022/06/05 06:19:46;;;;;;;7.82;7.05;;;;;;;19.17;66.27;96590.59;4937396;29;20075;-80
2022/06/05 06:22:14;;;;;;;7.78;7.07;;;;;;;19.12;66.39;96610.59;4937295;29;20522;-81
2022/06/05 06:24:41;;;;;;;6.10;5.60;;;;;;;19.08;66.56;96637.75;4937417;29;20087;-79
2022/06/05 06:27:09;;;;;;;7.03;6.32;;;;;;;19.08;66.70;96698.56;4937158;29;20056;-78
2022/06/05 06:29:36;;;;;;;7.03;6.43;;;;;;;19.09;66.61;96795.38;4936888;29;20052;-79
2022/06/05 06:32:05;;;;;;;6.97;6.38;;;;;;;19.11;66.91;96862.00;4936911;29;20529;-78
2022/06/05 06:34:34;;;;;;;6.93;6.30;;;;;;;19.11;66.75;96878.69;4937146;29;20056;-78
2022/06/05 06:37:02;;;;;;;6.93;6.35;;;;;;;19.11;66.95;96864.66;4936381;29;20098;-78
2022/06/05 06:39:30;;;;;;;7.28;6.57;;;;;;;19.12;67.11;96868.91;4936890;29;20095;-78
2022/06/05 06:41:58;;;;;;;7.45;6.05;;;;;;;19.13;67.39;96887.22;4936550;29;20107;-79
2022/06/05 06:44:26;;;;;;;7.00;6.32;;;;;;;19.15;68.02;96894.91;4936716;29;20062;-78
2022/06/05 06:46:53;;;;;;;11.10;8.18;;;;;;;19.14;68.93;96888.81;4936577;29;20561;-80
2022/06/05 06:49:21;;;;;;;9.25;7.82;;;;;;;19.12;69.37;96882.94;4929058;29;20048;-79
2022/06/05 06:51:50;;;;;;;9.52;7.60;;;;;;;19.07;69.87;96866.97;4936584;29;20058;-78
2022/06/05 06:54:17;;;;;;;10.30;7.90;;;;;;;19.04;70.31;96863.97;4936502;29;20494;-79
2022/06/05 06:56:45;;;;;;;9.15;7.25;;;;;;;18.99;70.57;96874.44;4936865;29;20058;-81
2022/06/05 06:59:12;;;;;;;9.55;7.72;;;;;;;18.99;71.13;96900.88;4947453;29;20071;-81
2022/06/05 07:01:40;;;;;;;7.72;7.10;;;;;;;18.98;71.09;96907.16;4954814;29;20052;-79
2022/06/05 07:04:08;;;;;;;13.65;8.77;;;;;;;18.96;71.89;96896.03;4952847;29;20111;-81
2022/06/05 07:06:36;;;;;;;9.48;8.52;;;;;;;18.97;72.25;96890.50;4936761;29;20147;-80
2022/06/05 07:09:05;;;;;;;7.90;7.13;;;;;;;18.99;72.00;96874.44;4938649;29;20047;-81
2022/06/05 07:11:33;;;;;;;11.90;8.23;;;;;;;18.97;72.72;96861.44;4939697;29;20584;-81
2022/06/05 07:14:00;;;;;;;8.35;7.35;;;;;;;18.96;72.19;96869.59;4944158;29;20062;-82
2022/06/05 07:16:28;;;;;;;11.60;8.23;;;;;;;18.94;72.68;96868.00;4936450;29;20115;-80
2022/06/05 07:18:56;;;;;;;17.75;12.55;;;;;;;18.93;72.55;96855.81;4936577;29;20083;-78
2022/06/05 07:21:25;;;;;;;10.40;9.25;;;;;;;18.91;72.35;96842.03;4937521;29;20203;-81
2022/06/05 07:23:54;;;;;;;9.70;8.43;;;;;;;18.85;72.48;96826.28;4936672;29;20181;-80
2022/06/05 07:26:26;;;;;;;8.13;7.32;;;;;;;18.75;72.74;96826.78;4936079;29;20119;-80
2022/06/05 07:28:56;;;;;;;;;;;;;;;18.70;72.56;96808.19;4936423;29;20581;-78
2022/06/05 07:31:26;;;;;;;10.80;8.93;;;;;;;18.62;72.92;96811.94;4935864;29;20017;-80
2022/06/05 07:33:53;;;;;;;8.73;7.82;;;;;;;18.55;72.97;96818.38;4936187;29;20063;-80
2022/06/05 07:36:21;;;;;;;8.23;7.38;;;;;;;18.49;73.10;96820.88;4928310;29;20055;-80
2022/06/05 07:38:50;;;;;;;7.57;6.63;;;;;;;18.48;73.41;96815.84;4935788;29;20098;-80
2022/06/05 07:41:19;;;;;;;8.27;7.45;;;;;;;18.52;74.72;96812.53;4935450;29;20051;-81
2022/06/05 07:43:49;;;;;;;11.57;8.05;;;;;;;18.57;75.60;96811.84;4935623;29;20131;-80
2022/06/05 07:46:17;;;;;;;8.48;6.80;;;;;;;18.60;74.57;96813.22;4935460;29;20565;-79
2022/06/05 07:48:45;;;;;;;9.07;7.72;;;;;;;18.64;75.66;96814.38;4934854;29;20237;-79
2022/06/05 07:56:45;;;;;;;17.83;14.98;;;;;;;18.72;75.51;96833.34;4935495;29;20103;-80
2022/06/05 07:59:14;;;;;;;18.77;13.45;;;;;;;18.73;75.89;96845.50;4935476;29;20402;-80
2022/06/05 08:01:56;;;;;;;10.95;8.55;;;;;;;18.73;75.58;96842.88;4935191;29;20074;-80
2022/06/05 08:04:24;;;;;;;6.82;6.13;;;;;;;18.73;74.76;96844.72;4935175;29;20418;-80
2022/06/05 08:06:52;;;;;;;6.95;5.68;;;;;;;18.68;74.03;96847.25;4935215;29;20055;-80
2022/06/05 08:09:21;;;;;;;8.23;6.05;;;;;;;18.64;74.17;96840.78;4928519;29;20048;-80
2022/06/05 08:11:49;;;;;;;7.15;5.75;;;;;;;18.60;73.79;96839.63;4935038;29;20139;-80
2022/06/05 08:14:18;;;;;;;6.75;6.03;;;;;;;18.55;73.73;96821.03;4935222;29;20064;-80
2022/06/05 08:16:46;;;;;;;6.55;5.68;;;;;;;18.48;73.92;96784.94;4935480;29;20075;-80
2022/06/05 08:19:16;;;;;;;7.68;5.93;;;;;;;18.41;74.23;96747.28;4935376;29;20062;-79
2022/06/05 08:21:43;;;;;;;6.45;5.07;;;;;;;18.33;74.12;96692.94;4935659;29;20099;-80
2022/06/05 08:24:11;;;;;;;4.93;4.50;;;;;;;18.23;73.96;96624.03;4934784;29;20532;-80
2022/06/05 08:26:39;;;;;;;4.75;4.10;;;;;;;18.12;74.02;96554.38;4935186;29;20071;-79
2022/06/05 08:29:07;;;;;;;2.35;2.17;;;;;;;18.07;72.92;96488.28;4934723;29;20055;-80
2022/06/05 08:31:37;;;;;;;2.97;1.45;;;;;;;18.04;71.97;96478.19;4934363;29;20044;-79
2022/06/05 08:34:05;;;;;;;1.70;0.85;;;;;;;18.06;70.81;96497.25;4934831;29;20075;-79
2022/06/05 08:36:34;;;;;;;0.50;0.50;;;;;;;18.08;69.94;96510.19;4934914;29;20490;-80
2022/06/05 08:41:56;;;;;;;1.95;0.50;;;;;;;18.20;68.85;96532.13;4934382;29;20094;-79
2022/06/05 08:44:35;;;;;;;1.52;0.47;;;;;;;18.27;68.14;96539.91;4934989;29;20118;-79
2022/06/05 08:47:12;;;;;;;0.30;0.30;;;;;;;18.34;67.22;96535.28;4934838;29;20058;-79
2022/06/05 08:49:49;;;;;;;0.30;0.30;;;;;;;18.41;66.51;96520.16;4934652;29;20142;-80
2022/06/05 08:52:27;;;;;;;0.60;0.30;;;;;;;18.51;66.52;96506.31;4934403;29;20094;-80
2022/06/05 08:55:01;;;;;;;0.85;0.50;;;;;;;18.58;66.10;96501.69;4934947;29;20059;-80
2022/06/05 08:57:35;;;;;;;2.58;0.52;;;;;;;18.65;66.25;96504.22;4934917;29;20131;-80
2022/06/05 09:00:09;;;;;;;1.98;0.40;;;;;;;18.72;65.61;96489.03;4934844;29;20056;-79
2022/06/05 09:02:45;;;;;;;0.77;0.40;;;;;;;18.79;64.97;96500.28;4938838;29;20458;-80
2022/06/05 09:05:21;;;;;;;1.08;0.47;;;;;;;18.88;66.05;96514.72;4938205;29;20051;-80
2022/06/05 09:07:53;;;;;;;1.88;0.50;;;;;;;18.94;65.31;96508.50;4938516;29;20498;-80
2022/06/05 09:10:33;;;;;;;0.93;0.45;;;;;;;19.03;65.07;96521.34;4938202;29;20079;-80
2022/06/05 09:13:05;;;;;;;3.28;0.68;;;;;;;19.11;65.65;96529.69;4938475;29;20075;-80
2022/06/05 09:15:35;;;;;;;;;;;;;;;19.18;65.61;96545.41;4938988;29;20051;-79
2022/06/05 09:18:13;;;;;;;1.33;0.50;;;;;;;19.24;64.59;96544.47;4939526;29;19922;-80
2022/06/05 09:20:47;;;;;;;1.05;0.75;;;;;;;19.29;64.01;96554.31;4939354;29;20082;-80
2022/06/05 09:23:22;;;;;;;1.95;1.10;;;;;;;19.37;63.64;96558.41;4938349;29;20052;-80
2022/06/05 09:26:02;;;;;;;2.58;0.80;;;;;;;19.43;63.68;96574.13;4938341;29;20055;-80
2022/06/05 09:28:52;;;;;;;2.20;0.55;;;;;;;19.50;63.37;96572.16;4938463;29;20421;-80
2022/06/05 09:32:00;;;;;;;1.83;1.05;;;;;;;19.58;63.48;96570.94;4937785;29;20175;-80
2022/06/05 09:34:34;;;;;;;2.88;0.93;;;;;;;19.63;65.23;96560.44;4860579;29;20113;-80
2022/06/05 09:37:14;;;;;;;0.90;0.65;;;;;;;19.72;64.16;96558.22;4860937;29;20459;-79
2022/06/05 09:39:47;;;;;;;1.10;1.00;;;;;;;19.80;63.47;96567.63;4909034;29;20052;-80
2022/06/05 09:42:30;;;;;;;2.65;0.80;;;;;;;19.89;64.57;96571.44;4937594;29;20078;-80
2022/06/05 09:45:07;;;;;;;1.92;0.90;;;;;;;19.96;63.84;96558.84;4937877;29;20507;-81
2022/06/05 09:47:41;;;;;;;1.95;0.93;;;;;;;20.07;62.36;96560.63;4937946;29;20135;-79
2022/06/05 09:50:22;;;;;;;1.23;0.70;;;;;;;20.20;62.56;96559.44;4937475;29;20063;-80
2022/06/05 09:52:50;;;;;;;1.17;1.08;;;;;;;20.32;63.18;96554.06;4937610;29;20058;-80
2022/06/05 09:55:20;;;;;;;1.70;0.60;;;;;;;20.46;63.20;96563.25;4937575;29;20048;-79
2022/06/05 10:00:50;;;;;;;3.95;2.72;;;;;;;20.64;63.64;96561.38;4936973;29;20056;-80
2022/06/05 10:03:21;;;;;;;2.38;1.00;;;;;;;20.70;61.94;96553.22;4937027;29;20155;-79
2022/06/05 10:06:10;;;;;;;1.25;0.82;;;;;;;20.83;62.87;96554.72;4937606;29;20058;-80
2022/06/05 10:08:41;;;;;;;1.40;0.82;;;;;;;20.96;62.18;96551.66;4946400;29;20115;-80
2022/06/05 10:11:23;;;;;;;1.30;0.80;;;;;;;21.08;61.82;96546.25;4937161;29;20048;-81
2022/06/05 10:14:00;;;;;;;0.77;0.50;;;;;;;21.16;62.05;96547.63;4936658;29;20070;-80
2022/06/05 10:16:33;;;;;;;1.35;0.70;;;;;;;21.26;61.74;96546.94;4940206;29;20138;-81
2022/06/05 10:19:17;;;;;;;1.25;0.82;;;;;;;21.33;62.35;96542.22;4938902;29;20059;-81
2022/06/05 10:21:53;;;;;;;2.38;0.90;;;;;;;21.43;62.02;96544.19;4937612;29;20048;-81
2022/06/05 10:24:31;;;;;;;1.25;1.15;;;;;;;21.50;61.23;96544.78;4937557;29;20135;-80
2022/06/05 10:27:02;;;;;;;1.33;0.93;;;;;;;21.55;62.44;96527.03;4937157;29;20066;-80
2022/06/05 10:29:34;;;;;;;2.22;1.30;;;;;;;21.64;61.51;96530.03;4936920;29;20470;-80
2022/06/05 10:32:05;;;;;;;;;;;;;;;21.76;61.97;96529.88;4937192;29;20079;-80
2022/06/05 10:34:41;;;;;;;4.22;3.15;;;;;;;21.87;63.05;96525.44;4936544;29;20007;-80
2022/06/05 10:37:30;;;;;;;2.78;1.40;;;;;;;21.95;60.86;96522.28;4937197;29;20134;-80
2022/06/05 10:40:07;;;;;;;2.25;1.30;;;;;;;22.01;60.77;96529.22;4936747;29;20130;-80
2022/06/05 10:42:41;;;;;;;2.35;1.20;;;;;;;22.10;60.73;96530.34;4937425;29;20051;-80
2022/06/05 10:45:20;;;;;;;1.48;1.38;;;;;;;22.18;61.59;96526.41;4936420;29;20573;-80
2022/06/05 10:48:06;;;;;;;1.48;1.15;;;;;;;22.27;60.18;96530.19;4936808;29;20099;-80
2022/06/05 10:50:44;;;;;;;1.63;1.30;;;;;;;22.33;59.48;96533.69;4936274;29;20421;-80
2022/06/05 10:53:20;;;;;;;1.73;1.60;;;;;;;22.38;60.38;96528.41;4942033;29;20043;-81
2022/06/05 10:56:06;;;;;;;1.52;1.40;;;;;;;22.42;58.63;96529.47;4938540;29;20098;-81
2022/06/05 10:58:40;;;;;;;2.25;1.90;;;;;;;22.43;58.46;96528.41;4937488;29;20056;-80
2022/06/05 11:01:30;;;;;;;1.92;1.63;;;;;;;22.47;59.24;96524.19;4937523;29;20138;-81
2022/06/05 11:04:05;;;;;;;2.17;1.67;;;;;;;22.51;61.03;96530.59;4956371;23;20072;-78
2022/06/05 11:06:41;;;;;;;2.33;1.33;;;;;;;22.56;59.09;96530.59;4936751;29;20075;-78
2022/06/05 11:09:27;;;;;;;1.40;1.30;;;;;;;22.59;58.34;96543.38;4936840;29;20055;-77
2022/06/05 11:14:59;;;;;;;1.23;1.13;;;;;;;22.65;58.80;96557.47;4938027;29;20052;-78
2022/06/05 11:17:33;;;;;;;2.00;1.50;;;;;;;22.66;57.81;96564.41;4950608;29;20075;-78
2022/06/05 11:20:09;;;;;;;2.63;1.70;;;;;;;22.68;58.92;96569.47;4949383;29;20492;-78
2022/06/05 11:22:40;;;;;;;8.02;3.72;;;;;;;22.67;58.02;96576.63;4937191;29;20536;-78
2022/06/05 11:25:21;;;;;;;3.25;2.00;;;;;;;22.66;57.29;96584.88;4936809;29;20139;-78
2022/06/05 11:27:59;;;;;;;1.55;1.15;;;;;;;22.61;57.10;96594.44;4937253;29;20057;-78
2022/06/05 11:30:39;;;;;;;3.00;1.17;;;;;;;22.58;58.10;96608.22;4936578;29;20059;-78
2022/06/05 11:33:13;;;;;;;2.80;1.85;;;;;;;22.59;57.51;96614.38;4936889;29;20313;-78
2022/06/05 11:35:56;;;;;;;1.52;1.00;;;;;;;22.58;58.12;96626.03;4954531;29;20064;-78
2022/06/05 11:38:32;;;;;;;1.55;1.30;;;;;;;22.54;57.96;96639.06;4953861;29;20056;-78
2022/06/05 11:41:07;;;;;;;4.30;1.48;;;;;;;22.52;58.71;96643.84;4939026;29;20135;-78
2022/06/05 11:43:36;;;;;;;3.25;1.25;;;;;;;22.51;60.31;96650.19;4937975;29;20044;-78
2022/06/05 11:46:30;;;;;;;1.33;1.20;;;;;;;22.51;61.59;96654.72;4937119;29;20062;-78
2022/06/05 11:49:06;;;;;;;4.22;1.60;;;;;;;22.49;61.60;96651.50;4936355;29;20178;-78
2022/06/05 11:51:52;;;;;;;2.95;1.60;;;;;;;22.47;63.05;96654.41;4935507;29;20380;-77
2022/06/05 11:54:25;;;;;;;1.17;1.08;;;;;;;22.46;62.94;96663.47;4935983;29;20056;-78
2022/06/05 11:57:08;;;;;;;2.40;1.10;;;;;;;22.43;63.94;96669.28;4935737;29;20087;-78
2022/06/05 11:59:44;;;;;;;2.38;1.20;;;;;;;22.40;64.36;96669.81;4936078;29;20086;-77
2022/06/05 12:02:39;;;;;;;1.73;1.10;;;;;;;22.37;64.88;96665.00;4940814;29;20107;-78
2022/06/05 12:05:16;;;;;;;2.95;1.00;;;;;;;22.32;64.64;96672.94;4928487;29;20063;-78
2022/06/05 12:07:47;;;;;;;1.15;0.73;;;;;;;22.25;62.85;96670.47;4935539;29;20058;-78
2022/06/05 12:10:22;;;;;;;4.72;1.15;;;;;;;22.18;62.72;96660.03;4935190;29;20051;-78
2022/06/05 12:13:02;;;;;;;2.72;1.27;;;;;;;22.15;64.05;96660.56;4935753;29;20069;-78
2022/06/05 12:15:41;;;;;;;3.15;1.15;;;;;;;22.12;63.76;96662.91;4935494;29;20077;-78
2022/06/05 12:18:16;;;;;;;2.80;0.95;;;;;;;22.10;64.03;96659.72;4935471;29;20220;-78
2022/06/05 12:20:50;;;;;;;2.30;0.82;;;;;;;22.02;64.56;96661.00;4935054;29;20058;-78
2022/06/05 12:23:25;;;;;;;1.20;1.10;;;;;;;21.97;65.02;96655.63;4935371;29;20147;-78
2022/06/05 12:25:59;;;;;;;2.47;1.02;;;;;;;21.92;65.67;96651.06;4935673;29;20074;-78
2022/06/05 12:28:33;;;;;;;3.10;1.90;;;;;;;21.86;65.79;96635.34;4935624;29;20105;-77
2022/06/05 12:31:10;;;;;;;5.63;1.25;;;;;;;21.71;66.15;96615.59;4935061;29;20060;-77
2022/06/05 12:33:44;;;;;;;1.92;1.20;;;;;;;21.57;66.23;96611.72;4940082;29;20051;-79
2022/06/05 12:36:31;;;;;;;3.05;1.00;;;;;;;21.45;66.72;96611.06;4947800;29;20048;-79
2022/06/05 12:39:01;;;;;;;2.53;1.00;;;;;;;21.31;67.08;96595.53;4948523;29;20087;-80
2022/06/05 12:41:45;;;;;;;2.83;1.20;;;;;;;21.20;67.95;96591.19;4947896;29;20075;-79
2022/06/05 12:44:22;;;;;;;1.38;1.27;;;;;;;21.11;68.78;96604.06;4949349;29;20044;-79
2022/06/05 12:46:56;;;;;;;1.52;1.00;;;;;;;21.04;68.54;96602.69;4948984;29;20425;-79
2022/06/05 12:49:33;;;;;;;1.92;0.80;;;;;;;20.98;68.73;96599.97;4948696;29;20048;-77
2022/06/05 12:52:19;;;;;;;4.93;1.05;;;;;;;20.92;69.53;96590.34;4949811;29;20075;-77
2022/06/05 12:54:51;;;;;;;3.13;1.08;;;;;;;20.87;69.87;96592.13;4943383;29;20058;-77
2022/06/05 12:57:38;;;;;;;1.98;1.08;;;;;;;20.81;69.98;96596.56;4939222;29;20055;-77
2022/06/05 13:00:18;;;;;;;3.50;1.05;;;;;;;20.77;70.79;96598.09;4938767;29;20425;-77
2022/06/05 13:02:52;;;;;;;3.03;0.88;;;;;;;20.76;71.39;96602.63;4939272;29;20502;-78
2022/06/05 13:05:29;;;;;;;1.50;1.27;;;;;;;20.75;71.05;96589.59;4938753;29;20059;-77
2022/06/05 13:08:03;;;;;;;2.83;1.50;;;;;;;20.72;71.18;96590.09;4939006;29;20562;-77
2022/06/05 13:10:36;;;;;;;2.78;1.15;;;;;;;20.62;71.19;96580.19;4938588;29;20066;-77
2022/06/05 13:13:15;;;;;;;3.45;1.02;;;;;;;20.51;71.77;96573.94;4938877;29;20516;-77
2022/06/05 13:15:49;;;;;;;2.50;1.20;;;;;;;20.37;71.81;96562.88;4938689;29;20136;-77
2022/06/05 13:18:25;;;;;;;5.05;1.27;;;;;;;20.28;71.86;96547.66;4938829;29;20055;-77
2022/06/05 13:21:04;;;;;;;2.97;1.50;;;;;;;20.20;71.85;96529.53;4938231;29;20087;-76
2022/06/05 13:23:37;;;;;;;2.53;0.90;;;;;;;20.14;70.94;96513.56;4938779;29;20122;-77
2022/06/05 13:26:16;;;;;;;0.57;0.50;;;;;;;20.06;70.99;96487.50;4938710;29;20482;-76
2022/06/05 13:28:50;;;;;;;2.70;0.60;;;;;;;20.03;70.05;96476.59;4939620;29;20134;-76
2022/06/05 13:31:28;;;;;;;3.47;0.80;;;;;;;20.00;70.71;96472.59;4938999;29;20063;-78
2022/06/05 13:34:04;;;;;;;1.27;0.52;;;;;;;20.01;70.66;96484.81;4938813;29;20059;-77
2022/06/05 13:36:38;;;;;;;0.85;0.70;;;;;;;20.05;71.07;96479.81;4938408;29;20142;-77
2022/06/05 13:39:22;;;;;;;1.95;0.90;;;;;;;20.06;70.09;96454.94;4938272;29;20051;-77
2022/06/05 13:41:57;;;;;;;1.38;0.50;;;;;;;20.01;70.53;96450.38;4938012;29;20065;-77
2022/06/05 13:44:28;;;;;;;1.95;0.70;;;;;;;20.00;70.64;96462.00;4938216;29;20063;-78
2022/06/05 13:47:12;;;;;;;2.67;1.38;;;;;;;20.05;73.44;96456.78;4937460;29;20055;-77
2022/06/05 13:49:48;;;;;;;1.77;0.73;;;;;;;20.08;71.30;96460.78;4937940;29;20056;-77
2022/06/05 13:52:32;;;;;;;3.70;1.08;;;;;;;20.08;71.23;96458.94;4937924;29;20083;-77
2022/06/05 13:55:04;;;;;;;5.22;2.25;;;;;;;20.09;71.58;96468.47;4937740;29;20048;-77
2022/06/05 13:57:42;;;;;;;4.63;2.30;;;;;;;20.11;72.34;96489.41;4937748;29;20152;-77
2022/06/05 14:00:21;;;;;;;1.33;0.90;;;;;;;20.14;71.25;96510.13;4938811;29;20059;-77
2022/06/05 14:03:03;;;;;;;0.82;0.73;;;;;;;20.16;71.52;96516.00;4937404;29;20059;-77
2022/06/05 14:05:36;;;;;;;3.38;1.25;;;;;;;20.18;71.24;96527.13;4937919;29;20055;-77
2022/06/05 14:08:05;;;;;;;;;;;;;;;20.19;70.83;96543.81;4937987;29;20064;-77
2022/06/05 14:10:46;;;;;;;1.77;0.90;;;;;;;20.14;70.32;96533.97;4937407;29;19923;-77
2022/06/05 14:13:15;;;;;;;1.75;0.90;;;;;;;20.17;70.58;96541.41;4937548;29;20154;-77
2022/06/05 14:15:46;;;;;;;3.20;0.82;;;;;;;20.19;70.48;96536.69;4937654;29;20106;-77
2022/06/05 14:18:24;;;;;;;5.32;2.20;;;;;;;20.20;70.21;96529.53;4942753;29;20052;-77
2022/06/05 14:20:57;;;;;;;3.63;2.67;;;;;;;20.21;70.86;96531.94;4945028;29;20507;-77
2022/06/05 14:23:27;;;;;;;4.65;2.00;;;;;;;20.23;70.91;96529.06;4947011;29;20569;-77
2022/06/05 14:26:00;;;;;;;2.78;1.70;;;;;;;20.23;71.39;96534.34;4937789;29;20056;-78
2022/06/05 14:28:36;;;;;;;3.03;1.60;;;;;;;20.23;71.28;96537.00;4937511;29;20130;-77
2022/06/05 14:31:11;;;;;;;2.78;1.20;;;;;;;20.27;71.86;96538.09;4937344;29;20062;-77
2022/06/05 14:33:43;;;;;;;1.35;1.15;;;;;;;20.30;71.13;96538.41;4936891;29;20087;-77
2022/06/05 14:36:18;;;;;;;2.05;1.40;;;;;;;20.34;72.05;96530.78;4937009;29;20048;-77
2022/06/05 14:38:51;;;;;;;1.25;1.15;;;;;;;20.35;72.27;96529.72;4936979;29;20058;-77
2022/06/05 14:41:22;;;;;;;3.25;1.63;;;;;;;20.36;72.17;96523.41;4936856;29;20069;-77
2022/06/05 14:43:54;;;;;;;6.40;2.50;;;;;;;20.37;71.93;96517.03;4936721;29;20047;-78
2022/06/05 14:46:34;;;;;;;2.20;1.40;;;;;;;20.33;69.83;96510.63;4943776;29;20056;-77
2022/06/05 14:49:14;;;;;;;2.35;1.00;;;;;;;20.31;69.93;96512.72;4954674;29;20060;-77
2022/06/05 14:51:50;;;;;;;3.50;1.05;;;;;;;20.28;69.61;96506.06;4947052;29;20138;-77
2022/06/05 14:57:51;;;;;;;1.52;0.90;;;;;;;20.26;69.51;96512.66;4939169;29;20414;-77
2022/06/05 15:00:13;;;;;;;1.13;0.75;;;;;;;20.31;69.14;96531.25;4956332;29;20055;-77
2022/06/05 15:02:47;;;;;;;2.65;1.10;;;;;;;20.34;70.16;96551.97;4956193;29;20048;-77
2022/06/05 15:05:20;;;;;;;8.10;1.17;;;;;;;20.37;71.13;96572.66;4939070;29;20056;-77
2022/06/05 15:07:53;;;;;;;4.93;1.38;;;;;;;20.39;69.84;96586.47;4937936;29;20399;-77
2022/06/05 15:10:33;;;;;;;1.80;1.13;;;;;;;20.44;70.47;96591.81;4936709;29;20058;-77
2022/06/05 15:13:10;;;;;;;2.78;1.35;;;;;;;20.51;72.84;96604.91;4936708;29;20062;-77
2022/06/05 15:15:46;;;;;;;5.15;1.45;;;;;;;20.55;71.26;96598.88;4936707;29;20146;-77
2022/06/05 15:18:14;;;;;;;3.65;0.98;;;;;;;20.55;69.58;96593.59;4936312;29;20061;-77